createdAt,value
2023-05-18T00:06:23.277Z,100754.67
2023-05-18T00:17:17.241Z,100757.59
2023-05-18T01:19:32.620Z,100801.39
2023-05-18T01:29:59.174Z,100816.17
2023-05-18T01:40:33.307Z,100828.18
2023-05-18T01:51:05.511Z,100837.38
2023-05-18T02:14:52.971Z,100832.87
2023-05-18T02:25:18.978Z,100832.31
2023-05-18T02:35:33.856Z,100836.56
2023-05-18T02:46:04.759Z,100847.05
2023-05-18T03:08:00.626Z,100862.90
2023-05-18T03:19:05.149Z,100872.55
2023-05-18T03:29:42.387Z,100874.36
2023-05-18T03:40:21.101Z,100884.38
2023-05-18T03:50:36.226Z,100896.92
2023-05-18T04:00:59.633Z,100915.82
2023-05-18T04:12:02.838Z,100919.29
2023-05-18T04:22:31.610Z,100931.66
2023-05-18T04:33:00.565Z,100938.09
2023-05-18T04:43:42.223Z,100952.77
2023-05-18T04:54:11.371Z,100969.91
2023-05-18T05:26:50.962Z,100984.15
2023-05-18T05:49:12.732Z,100986.33
2023-05-18T06:11:38.822Z,101001.13
2023-05-18T06:22:33.048Z,101004.88
2023-05-18T06:32:58.143Z,101011.37
2023-05-18T06:43:01.883Z,101015.83
2023-05-18T06:53:18.982Z,101027.42
2023-05-18T07:03:26.137Z,101031.86
2023-05-18T07:13:31.496Z,101032.45
2023-05-18T07:23:37.649Z,101044.02
2023-05-18T07:33:42.559Z,101044.77
2023-05-18T07:43:46.149Z,101061.48
2023-05-18T07:53:52.338Z,101059.73
2023-05-18T08:03:57.220Z,101066.31
2023-05-18T08:14:01.199Z,101070.82
2023-05-18T08:24:08.483Z,101084.48
2023-05-18T08:34:12.731Z,101071.33
2023-05-18T08:44:21.826Z,101070.02
2023-05-18T08:54:26.594Z,101065.29
2023-05-18T09:04:37.749Z,101077.20
2023-05-18T09:14:43.885Z,101075.57
2023-05-18T09:24:49.128Z,101079.46
2023-05-18T09:34:55.679Z,101079.77
2023-05-18T09:44:59.312Z,101083.60
2023-05-18T09:55:06.558Z,101088.06
2023-05-18T10:05:23.224Z,101085.46
2023-05-18T10:15:28.538Z,101083.30
2023-05-18T10:25:33.648Z,101079.46
2023-05-18T10:35:40.086Z,101078.18
2023-05-18T10:45:49.838Z,101084.92
2023-05-18T10:55:54.812Z,101079.88
2023-05-18T11:06:05.263Z,101071.56
2023-05-18T11:16:10.552Z,101077.69
2023-05-18T11:26:16.656Z,101073.36
2023-05-18T11:36:26.675Z,101073.88
2023-05-18T11:46:30.309Z,101076.27
2023-05-18T11:56:34.191Z,101070.42
2023-05-18T12:06:40.153Z,101080.20
2023-05-18T12:16:46.573Z,101074.96
2023-05-18T12:26:51.467Z,101076.15
2023-05-18T12:36:56.258Z,101074.19
2023-05-18T12:47:02.402Z,101071.98
2023-05-18T12:57:10.234Z,101064.80
2023-05-18T13:07:15.890Z,101070.77
2023-05-18T13:17:23.358Z,101061.80
2023-05-18T13:27:29.984Z,101057.55
2023-05-18T13:37:33.617Z,101048.87
2023-05-18T13:47:37.288Z,101051.06
2023-05-18T13:58:07.756Z,101051.69
2023-05-18T14:19:54.305Z,101045.55
2023-05-18T14:29:59.562Z,101041.38
2023-05-18T14:40:04.756Z,101046.69
2023-05-18T14:50:08.850Z,101044.92
2023-05-18T15:00:15.344Z,101045.45
2023-05-18T15:10:21.084Z,101045.20
2023-05-18T15:20:26.502Z,101035.27
2023-05-18T15:30:30.397Z,101042.80
2023-05-18T15:40:34.294Z,101044.14
2023-05-18T15:50:38.080Z,101034.84
2023-05-18T16:00:41.644Z,101036.60
2023-05-18T16:10:46.553Z,101037.95
2023-05-18T16:20:50.088Z,101040.41
2023-05-18T16:30:55.437Z,101051.65
2023-05-18T16:40:58.977Z,101062.30
2023-05-18T16:51:08.630Z,101066.44
2023-05-18T17:01:23.529Z,101079.55
2023-05-18T17:11:30.789Z,101078.85
2023-05-18T17:21:34.478Z,101090.22
2023-05-18T17:31:39.118Z,101094.40
2023-05-18T17:53:56.900Z,101111.00
2023-05-18T20:23:34.766Z,101237.02
2023-05-18T20:45:15.432Z,101245.41
2023-05-18T20:56:16.172Z,101261.58
2023-05-18T21:07:25.809Z,101268.29
2023-05-18T22:31:40.608Z,101281.75
2023-05-18T22:41:53.925Z,101280.06
2023-05-18T23:45:18.902Z,101262.98
2023-05-18T23:55:54.652Z,101255.20
